Terminal Aerodrome Forecast
Issued by NWS Northern Indiana

Home | Current Version | Previous Version | Graphics & Text | Print | Product List | Glossary On
Versions: 1 2 3 4 5 6 7 8 9 10 11 12 13 14
000
FTUS43 KIWX 241100
TAFFWA
TAF
KFWA 241126Z 2412/2512 20014G23KT 5SM -SHRA BR OVC018
      TEMPO 2412/2413 2SM SHRA BR OVC009
     FM241300 23017G31KT 4SM -SHRA BR OVC012
     FM241500 24025G40KT 6SM BR VCSH OVC015
     FM250000 24020G31KT P6SM OVC020
     FM250600 25013G20KT P6SM OVC025=

USA.gov is the U.S. government's official web portal to all federal, state and local government web resources and services.